Airfield :
LOGIN :

Register | Disclaimer

   EN    FR    IT 

 










Legend :    VFR   Marginal VFR   IFR   Intensive IFR   Very Intensive IFR
Visi :
Ceiling :
>= 8 km
>= 3000ft
5 to 8 km
1000 to 3000 ft
1500m to 5 km
500 to 1000 ft
800 to 1500m
200 to 500 ft
< 800m
< 200 ft
Symbols :   Thunderstorms  Fog  Heavy snow  Heavy precipitations  Wind > 20 kt
SIGMETs :     Misc.  Thunderstorms  Icing  Turbulence  Mountain Waves  Volcanic Ashes






- Airport Elevation : 352 ft
- IATA code : ARW


LRAR - Arad International

CURRENT METAR :
  • 210630Z 29003KT 0900 R09/1400 R27/1900D FZFG SCT001 BKN002 OVC038 M03/M03 Q1045

EXPIRED METARs :
  • 210600Z 27003KT 0800 R09/1200 R27/1400VP2000U FZFG BKN001 OVC002 M03/M03 Q1045
  • 210530Z VRB01KT 0600 R09/0800 R27/0800N FZFG OVC001 M03/M03 Q1045
  • 210500Z 30004KT 0700 R09/0800 R27/0800V1000D FZFG BKN002 OVC040 M02/M02 Q1045
  • 210430Z 31004KT 0800 R09/1000 R27/0900N FZFG SCT002 OVC032 M02/M02 Q1045
  • 210400Z 30003KT 3000 BR BKN033 M01/M01 Q1045

TAF TAF LRAR
Valid from the 21 at 06:00 until the 21 at 15:00 UTC


210500Z 2106/2115 VRB04KT 0600 FZFG OVC001
BECMG 2106/2108 1500 BR BKN005 OVC030
BECMG 2108/2110 7000 NSW OVC030



MET'MAP, your aeronautical weather chart ! - Copyright ORBIFLY December 2007 - Disclaimer

ORBIFLY MET'MAP TEAM :

Programming & Development : Alexandra Zaïnal
Concept & original design : Baudouin d'Aumeries
Assistance for programming : Marc-Olivier Méhu
Technical & hardware support : Manuel Goepfert

Contact : metmap@orbifly.com




SOURCES & CREDITS :

   NOAA